createdAt,value
2018-08-10T05:02:50.599Z,95805.46
2018-08-10T05:07:53.933Z,95810.47
2018-08-10T05:12:58.026Z,95829.14
2018-08-10T05:18:01.357Z,95851.28
2018-08-10T05:23:04.693Z,95850.53
2018-08-10T05:28:08.814Z,95862.76
2018-08-10T05:33:13.201Z,95870.73
2018-08-10T05:38:16.539Z,95897.91
2018-08-10T05:43:19.867Z,95908.64
2018-08-10T05:48:23.193Z,95913.64
2018-08-10T05:53:27.285Z,95930.66
2018-08-10T05:58:30.606Z,95927.12
2018-08-10T06:03:33.955Z,95927.32
2018-08-10T06:08:38.041Z,95936.65
2018-08-10T06:13:41.403Z,95943.97
2018-08-10T06:18:44.731Z,95951.40
2018-08-10T06:23:48.052Z,95955.66
2018-08-10T06:28:51.371Z,95956.75
2018-08-10T06:33:54.795Z,95985.38
2018-08-10T06:38:58.042Z,95975.61
2018-08-10T06:44:01.367Z,95985.28
2018-08-10T06:49:04.695Z,95988.33
2018-08-10T06:54:08.028Z,96005.30
2018-08-10T06:59:11.362Z,96014.55
2018-08-10T07:04:14.687Z,96017.93
2018-08-10T07:09:18.011Z,96027.65
2018-08-10T07:14:21.342Z,96042.02
2018-08-10T07:19:24.669Z,96049.81
2018-08-10T07:24:28.767Z,96065.55
2018-08-10T07:29:32.098Z,96064.62
2018-08-10T07:34:36.191Z,96075.25
2018-08-10T07:39:39.528Z,96078.97
2018-08-10T07:44:42.850Z,96089.80
2018-08-10T07:49:46.944Z,96084.30
2018-08-10T07:54:50.290Z,96082.94
2018-08-10T07:59:54.530Z,96082.84
2018-08-10T08:04:58.637Z,96104.21
2018-08-10T08:10:01.983Z,96105.69
2018-08-10T08:15:06.097Z,96120.91
2018-08-10T08:20:09.431Z,96115.63
2018-08-10T08:25:12.763Z,96123.56
2018-08-10T08:30:16.091Z,96132.99
2018-08-10T08:35:19.422Z,96143.72
2018-08-10T08:40:22.754Z,96139.80
2018-08-10T08:45:36.009Z,96139.18
2018-08-10T08:50:39.311Z,96157.29
2018-08-10T08:55:43.414Z,96146.26
2018-08-10T09:00:46.734Z,96151.56
2018-08-10T09:05:50.092Z,96151.63
2018-08-10T09:10:54.358Z,96158.95
2018-08-10T09:15:57.730Z,96158.11
2018-08-10T09:21:01.832Z,96147.52
2018-08-10T09:26:05.326Z,96162.17
2018-08-10T09:31:08.667Z,96160.55
2018-08-10T09:36:12.358Z,96169.39
2018-08-10T09:41:15.776Z,96167.97
2018-08-10T09:46:19.150Z,96167.16
2018-08-10T09:51:23.247Z,96169.13
2018-08-10T09:56:26.830Z,96166.83
2018-08-10T10:01:30.179Z,96166.97
2018-08-10T10:06:33.560Z,96173.46
2018-08-10T10:11:36.852Z,96180.14
2018-08-10T10:16:40.202Z,96176.45
2018-08-10T10:21:43.533Z,96177.14
2018-08-10T10:26:46.882Z,96174.05
2018-08-10T10:31:50.224Z,96168.41
2018-08-10T10:36:53.559Z,96166.98
2018-08-10T10:41:56.894Z,96157.34
2018-08-10T10:47:00.226Z,96158.38
2018-08-10T10:52:04.335Z,96157.09
2018-08-10T10:57:08.435Z,96151.09
2018-08-10T11:02:11.774Z,96153.88
2018-08-10T11:07:15.117Z,96156.98
2018-08-10T11:12:18.441Z,96147.73
2018-08-10T11:17:21.786Z,96153.95
2018-08-10T11:22:25.131Z,96150.73
2018-08-10T11:27:29.262Z,96150.33
2018-08-10T11:32:33.370Z,96154.27
2018-08-10T11:37:36.695Z,96148.69
2018-08-10T11:42:40.025Z,96152.47
2018-08-10T11:47:44.131Z,96153.73
2018-08-10T11:52:47.839Z,96142.36
2018-08-10T11:57:51.166Z,96146.82
2018-08-10T12:02:54.759Z,96141.43
2018-08-10T12:07:58.087Z,96139.03
2018-08-10T12:13:01.414Z,96142.59
2018-08-10T12:18:04.752Z,96144.02
2018-08-10T12:23:08.842Z,96137.93
2018-08-10T12:28:12.181Z,96137.05
2018-08-10T12:33:16.278Z,96139.17
2018-08-10T12:38:19.607Z,96135.06
2018-08-10T12:43:22.929Z,96137.31
2018-08-10T12:48:26.264Z,96140.84
2018-08-10T12:53:29.595Z,96147.59
2018-08-10T12:58:32.922Z,96147.08
2018-08-10T13:03:36.242Z,96140.95
2018-08-10T13:08:39.569Z,96141.13
2018-08-10T13:13:42.902Z,96145.79
2018-08-10T13:18:46.230Z,96144.95
2018-08-10T13:23:50.393Z,96138.44
2018-08-10T13:28:53.689Z,96136.08
2018-08-10T13:33:57.022Z,96132.40
2018-08-10T13:39:00.361Z,96124.58
2018-08-10T13:44:03.702Z,96119.76
2018-08-10T13:49:07.037Z,96122.52
2018-08-10T13:54:10.371Z,96120.81
2018-08-10T13:59:13.714Z,96112.18
2018-08-10T14:04:17.038Z,96105.37
2018-08-10T14:09:20.375Z,96110.06
2018-08-10T14:14:24.475Z,96111.19
2018-08-10T14:19:27.807Z,96109.62
2018-08-10T14:24:31.894Z,96106.13
2018-08-10T14:29:35.222Z,96088.72
2018-08-10T14:34:38.760Z,96093.15
2018-08-10T14:39:42.462Z,96095.78
2018-08-10T14:44:46.954Z,96091.31
2018-08-10T14:49:50.864Z,96086.09
2018-08-10T14:54:54.593Z,96075.50
2018-08-10T14:59:58.323Z,96077.30
2018-08-10T15:05:02.545Z,96078.17
2018-08-10T15:10:07.208Z,96074.38
2018-08-10T15:15:10.912Z,96070.83
2018-08-10T15:20:14.756Z,96068.30
2018-08-10T15:25:18.253Z,96070.23
2018-08-10T15:30:21.749Z,96073.78
2018-08-10T15:35:26.075Z,96063.44
2018-08-10T15:40:30.601Z,96060.43
2018-08-10T15:45:34.447Z,96054.38
2018-08-10T15:50:38.100Z,96053.69
2018-08-10T15:55:45.609Z,96059.20
2018-08-10T16:00:49.176Z,96061.97
2018-08-10T16:05:52.986Z,96050.48
2018-08-10T16:10:59.614Z,96045.91
2018-08-10T16:16:03.141Z,96048.62
2018-08-10T16:21:07.622Z,96055.95
2018-08-10T16:26:12.230Z,96050.23
2018-08-10T16:31:15.765Z,96054.91
2018-08-10T16:36:24.193Z,96054.28
2018-08-10T16:41:28.055Z,96047.47
2018-08-10T16:46:37.163Z,96050.75
2018-08-10T16:51:41.192Z,96036.44
2018-08-10T16:56:48.279Z,96048.82
2018-08-10T17:01:51.903Z,96052.23
2018-08-10T17:06:55.738Z,96057.03
2018-08-10T17:11:59.560Z,96057.31
2018-08-10T17:17:03.337Z,96049.95
2018-08-10T17:22:07.092Z,96045.44
2018-08-10T17:27:10.683Z,96052.08
2018-08-10T17:32:15.936Z,96047.15
2018-08-10T17:37:19.806Z,96044.73
2018-08-10T17:42:23.525Z,96047.25
2018-08-10T17:47:27.219Z,96050.37
2018-08-10T17:52:30.986Z,96049.73
2018-08-10T17:57:34.962Z,96055.63
2018-08-10T18:02:38.911Z,96046.27
2018-08-10T18:07:43.262Z,96050.01
2018-08-10T18:12:47.181Z,96048.89
2018-08-10T18:17:51.830Z,96041.91
2018-08-10T18:22:56.470Z,96044.09
2018-08-10T18:28:00.499Z,96045.77
2018-08-10T18:33:04.386Z,96047.66
2018-08-10T18:38:10.971Z,96046.27
2018-08-10T18:43:16.817Z,96046.73
2018-08-10T18:48:20.713Z,96038.67
2018-08-10T18:53:25.664Z,96043.81
2018-08-10T18:58:31.125Z,96059.19
2018-08-10T19:03:35.359Z,96051.17
2018-08-10T19:08:40.821Z,96048.21
2018-08-10T19:13:44.190Z,96058.77
2018-08-10T19:18:47.912Z,96055.31
2018-08-10T19:23:51.754Z,96053.37
2018-08-10T19:28:55.878Z,96057.78
2018-08-10T19:34:01.882Z,96064.47
2018-08-10T19:39:10.384Z,96054.17
2018-08-10T19:44:14.247Z,96048.27
2018-08-10T19:49:18.861Z,96045.20
2018-08-10T19:54:22.508Z,96041.64
2018-08-10T19:59:27.289Z,96043.92
2018-08-10T20:04:33.007Z,96037.13
2018-08-10T20:09:37.665Z,96042.20
2018-08-10T20:14:41.590Z,96054.78
2018-08-10T20:19:45.369Z,96058.59
2018-08-10T20:24:49.138Z,96053.09
2018-08-10T20:29:53.164Z,96051.16
2018-08-10T20:34:57.183Z,96034.72
2018-08-10T20:40:00.812Z,96036.26
2018-08-10T20:45:04.206Z,96030.86
2018-08-10T20:50:08.874Z,96030.57
2018-08-10T20:55:12.665Z,96027.07
2018-08-10T21:00:16.034Z,96014.41
2018-08-10T21:05:29.661Z,96011.17
2018-08-10T21:10:34.713Z,96019.61
2018-08-10T21:15:40.788Z,96014.22
2018-08-10T21:20:44.713Z,96007.37
2018-08-10T21:25:48.849Z,96008.53
2018-08-10T21:30:55.755Z,96010.54
2018-08-10T21:36:01.002Z,96012.44
2018-08-10T21:41:06.053Z,96009.98
2018-08-10T21:46:10.038Z,96013.42
2018-08-10T21:51:15.438Z,96008.33
2018-08-10T21:56:19.037Z,96012.06
2018-08-10T22:01:22.700Z,96009.48
2018-08-10T22:06:29.573Z,96000.63
2018-08-10T22:11:33.178Z,95998.29
2018-08-10T22:22:08.352Z,96005.98
